Time;durP1;ratioP1;P1;durP2;ratioP2;P2;SDS_P1;SDS_P2;PMS_P1;PMS_P2;Temp;Humidity;BMP_temperature;BMP_pressure;BME280_temperature;BME280_humidity;BME280_pressure;Samples;Min_cycle;Max_cycle;Signal;HPM_P1;HPM_P2
2023/04/03 08:31:16;;;;;;;1.33;0.60;;;;;;;16.84;31.97;102363.59;2113258;27;20391;-70
2023/04/03 08:32:19;;;;;;;1.75;0.73;;;;;;;16.86;31.93;102353.25;2103647;28;20055;-69
2023/04/03 08:33:25;;;;;;;2.38;0.98;;;;;;;16.99;33.00;102361.91;2096295;28;20044;-70
2023/04/03 08:34:34;;;;;;;1.90;0.80;;;;;;;17.19;33.05;102364.56;2109096;28;20058;-67
2023/04/03 08:36:23;;;;;;;1.92;0.80;;;;;;;17.32;32.55;102366.66;2085911;27;20327;-67
2023/04/03 08:37:28;;;;;;;3.50;0.80;;;;;;;17.49;33.48;102365.47;2086773;28;20045;-67
2023/04/03 08:38:31;;;;;;;0.77;0.70;;;;;;;17.57;33.08;102363.00;2069112;28;20060;-69
2023/04/03 08:39:34;;;;;;;1.33;0.82;;;;;;;17.73;33.69;102363.69;2111462;28;20036;-66
2023/04/03 08:40:43;;;;;;;1.83;0.70;;;;;;;17.93;33.89;102362.75;2100400;28;20036;-68
2023/04/03 08:41:47;;;;;;;1.95;0.70;;;;;;;18.02;30.97;102369.22;2068971;28;20049;-65
2023/04/03 08:43:30;;;;;;;1.60;0.50;;;;;;;17.31;29.02;102364.25;2094655;27;20067;-69
2023/04/03 08:44:52;;;;;;;0.80;0.50;;;;;;;16.48;29.38;102367.47;2129522;27;20034;-67
2023/04/03 08:46:02;;;;;;;2.38;0.60;;;;;;;15.73;29.52;102368.00;2128558;27;20096;-69
2023/04/03 08:47:11;;;;;;;1.48;0.70;;;;;;;15.26;30.50;102363.53;2120309;28;20035;-67
2023/04/03 08:48:27;;;;;;;7.32;1.40;;;;;;;14.84;30.91;102361.72;2120888;27;20039;-67
2023/04/03 08:49:46;;;;;;;5.75;1.85;;;;;;;14.62;31.80;102361.03;2111882;28;20046;-72
2023/04/03 08:51:02;;;;;;;5.25;1.90;;;;;;;-145.81;100.00;67990.72;2109252;28;20055;-67
2023/04/03 08:52:38;;;;;;;4.70;2.50;;;;;;;-145.81;100.00;67990.72;2114156;28;20051;-67
2023/04/03 08:53:46;;;;;;;6.35;2.00;;;;;;;-145.81;100.00;67990.72;2117175;28;20039;-66
2023/04/03 08:54:56;;;;;;;4.25;1.90;;;;;;;-145.81;100.00;67990.72;2104950;28;20047;-67
2023/04/03 08:55:58;;;;;;;3.88;2.00;;;;;;;-145.81;100.00;67990.72;2106223;28;20041;-64
2023/04/03 08:57:06;;;;;;;6.57;1.60;;;;;;;-145.81;100.00;67990.72;2112546;28;20038;-66
2023/04/03 08:58:21;;;;;;;5.80;1.88;;;;;;;-145.81;100.00;67990.72;2112490;28;20414;-63
2023/04/03 08:59:28;;;;;;;3.80;1.80;;;;;;;-145.81;100.00;67990.72;2122831;27;20035;-63
2023/04/03 09:00:58;;;;;;;3.10;1.60;;;;;;;-145.81;100.00;67990.72;2112269;28;20048;-64
2023/04/03 09:02:07;;;;;;;3.50;1.35;;;;;;;14.62;31.80;102361.03;2114341;27;20035;-64
2023/04/03 09:03:16;;;;;;;6.07;2.45;;;;;;;15.25;34.18;102351.84;2119848;28;20054;-66
2023/04/03 09:04:20;;;;;;;2.40;1.45;;;;;;;15.37;33.48;102357.03;2120037;28;20455;-65
2023/04/03 09:05:30;;;;;;;5.40;1.40;;;;;;;15.42;33.51;102367.09;2120793;28;20035;-66
2023/04/03 09:06:40;;;;;;;5.22;1.83;;;;;;;15.52;33.54;102357.09;2122546;27;20113;-66
2023/04/03 09:07:50;;;;;;;3.85;1.73;;;;;;;15.59;34.23;102356.84;2120070;28;20058;-66
2023/04/03 09:09:08;;;;;;;3.22;1.65;;;;;;;15.78;34.26;102368.00;2113419;28;20040;-67
2023/04/03 09:10:24;;;;;;;5.20;2.60;;;;;;;15.98;34.71;102364.50;2122517;27;20046;-66
2023/04/03 09:11:57;;;;;;;5.53;2.10;;;;;;;16.01;33.38;102363.94;2095619;27;20041;-66
2023/04/03 09:13:10;;;;;;;4.30;1.70;;;;;;;15.84;32.30;102372.34;2085682;28;20028;-67
2023/04/03 09:14:37;;;;;;;5.60;2.17;;;;;;;15.27;32.15;102365.16;2117507;27;20040;-67
2023/04/03 09:15:41;;;;;;;5.13;1.88;;;;;;;15.07;33.46;102365.91;2120872;28;20391;-66
2023/04/03 09:16:51;;;;;;;2.15;0.98;;;;;;;14.68;31.94;102360.00;2121208;27;20121;-66
2023/04/03 09:17:56;;;;;;;2.85;1.30;;;;;;;-145.81;100.00;67990.72;2128399;27;20042;-67
2023/04/03 09:19:11;;;;;;;1.48;0.95;;;;;;;-145.81;100.00;67990.72;2120610;28;20031;-67
2023/04/03 09:20:45;;;;;;;4.70;2.00;;;;;;;-145.81;100.00;67990.72;2083568;28;20061;-66
2023/04/03 09:21:47;;;;;;;5.60;1.58;;;;;;;-145.81;100.00;67990.72;2094211;27;20041;-69
2023/04/03 09:22:52;;;;;;;6.47;1.45;;;;;;;-145.81;100.00;67990.72;2100064;27;20036;-66
2023/04/03 09:24:00;;;;;;;5.72;2.17;;;;;;;-145.81;100.00;67990.72;2085505;28;20049;-68
2023/04/03 09:25:15;;;;;;;3.42;1.50;;;;;;;-145.81;100.00;67990.72;2085834;28;20049;-67
2023/04/03 09:26:47;;;;;;;5.30;2.42;;;;;;;-145.81;100.00;67990.72;2089530;27;20038;-65
2023/04/03 09:27:52;;;;;;;9.80;3.60;;;;;;;-145.81;100.00;67990.72;2118526;27;20043;-64
2023/04/03 09:29:07;;;;;;;11.02;2.97;;;;;;;-145.81;100.00;67990.72;2121717;27;20054;-65
2023/04/03 09:30:18;;;;;;;4.93;1.52;;;;;;;-145.81;100.00;67990.72;2078632;28;20041;-66
2023/04/03 09:31:32;;;;;;;8.82;2.17;;;;;;;-145.81;100.00;67990.72;2071257;28;20034;-64
2023/04/03 09:32:38;;;;;;;5.90;2.20;;;;;;;-145.81;100.00;67990.72;2087926;27;21202;-66
2023/04/03 09:33:40;;;;;;;4.90;1.60;;;;;;;-145.81;100.00;67990.72;2108060;28;20031;-69
2023/04/03 09:34:48;;;;;;;3.80;1.30;;;;;;;-145.81;100.00;67990.72;2086371;28;20524;-65
2023/04/03 09:35:53;;;;;;;5.80;2.40;;;;;;;-145.81;100.00;67990.72;2072533;28;20042;-65
2023/04/03 09:37:05;;;;;;;5.93;2.05;;;;;;;-145.81;100.00;67990.72;2097077;28;20053;-65
2023/04/03 09:38:11;;;;;;;5.45;1.63;;;;;;;-145.81;100.00;67990.72;2074211;28;20038;-66
2023/04/03 09:39:17;;;;;;;12.10;3.42;;;;;;;-145.81;100.00;67990.72;2071375;28;20056;-64
2023/04/03 09:40:27;;;;;;;9.35;3.65;;;;;;;-145.81;100.00;67990.72;2077027;28;20684;-65
2023/04/03 09:41:33;;;;;;;8.52;3.10;;;;;;;-145.81;100.00;67990.72;2115543;27;20443;-65
2023/04/03 09:42:41;;;;;;;8.55;2.92;;;;;;;-145.81;100.00;67990.72;2116173;27;20048;-65
2023/04/03 09:43:53;;;;;;;10.40;3.25;;;;;;;-145.81;100.00;67990.72;2077561;28;20038;-63
2023/04/03 09:44:58;;;;;;;8.43;1.77;;;;;;;;;;2056927;28;20043;-66
2023/04/03 09:46:31;;;;;;;10.70;2.78;;;;;;;-145.81;100.00;67990.72;2063386;28;20124;-67
2023/04/03 09:47:39;;;;;;;9.15;3.10;;;;;;;146.88;32.66;101666.81;2076761;28;20047;-71
2023/04/03 09:48:50;;;;;;;8.52;3.25;;;;;;;14.68;31.94;102360.00;2081640;28;20037;-70
2023/04/03 09:50:19;;;;;;;6.18;2.17;;;;;;;14.02;35.99;102358.41;2083566;28;20032;-66
2023/04/03 09:51:28;;;;;;;6.13;2.00;;;;;;;13.95;35.07;102352.41;2064553;28;20042;-67
2023/04/03 09:52:36;;;;;;;8.75;3.38;;;;;;;14.04;35.89;102358.97;2072296;28;20580;-69
2023/04/03 09:53:46;;;;;;;7.53;3.00;;;;;;;14.08;35.51;102359.28;2107448;28;20036;-70
2023/04/03 09:54:51;;;;;;;11.77;3.53;;;;;;;14.01;35.45;102356.78;2116100;27;20043;-69
2023/04/03 09:55:57;;;;;;;12.48;3.75;;;;;;;14.05;35.87;102357.88;2102666;28;20036;-67
2023/04/03 09:57:13;;;;;;;9.68;3.05;;;;;;;13.91;35.85;102354.00;2107555;27;20562;-69
2023/04/03 09:58:49;;;;;;;7.95;3.28;;;;;;;13.71;35.38;102354.59;2081114;28;20048;-74
2023/04/03 09:59:59;;;;;;;8.70;3.30;;;;;;;13.50;35.34;102353.59;2077896;28;20041;-67
2023/04/03 10:01:03;;;;;;;7.88;2.50;;;;;;;13.27;35.92;102359.25;2080026;28;20041;-66
2023/04/03 10:02:10;;;;;;;9.60;2.80;;;;;;;13.36;36.90;102350.47;2079241;28;20647;-68
2023/04/03 10:03:46;;;;;;;6.43;2.35;;;;;;;13.28;36.13;102355.50;2064644;28;20034;-68
2023/04/03 10:04:51;;;;;;;5.63;1.88;;;;;;;13.16;34.94;102364.53;2082716;28;20060;-70
2023/04/03 10:05:59;;;;;;;9.80;3.55;;;;;;;13.01;34.97;102360.81;2071106;28;20084;-68
